Wunstorf, Germany

11:26 AM CET on December 20, 2014 (GMT +0100)
Neustadt | Change Station
CLOSE
Current Station
Personal Weather Station
Location: Neustadt, NIEDERSACHSEN
Elevation: 131 ft
Nearby Weather Stations

Elev 131 ft 52.51 °N, 9.44 °E | Updated 11 seconds ago

Mostly Cloudy
Mostly Cloudy
44.2 °F
Feels Like 39 °F
N
10.7
Wind Variable Wind from WSW
Gusts 12.3 mph

Today
High -- | Low -- °F
--% Chance of Precip.
Yesterday
High -- | Low -- °F
Precip. -- in
8:29 AM 4:09 PM
Waning Crescent, 3% visible
Pressure 29.89 in
Visibility 6.2 miles
Clouds Few 800 ft
Mostly Cloudy 2200 ft
Windchill 39 °F
Dew Point 38 °F
Humidity 80%
Rainfall 0.00 in
Snow Depth Not available.
UV 0.0 out of 12
Pollen Not available.
Air Quality Not available.
Flu Activity Not available.
METAR EDDV 201020Z 24020G32KT 210V270 9999 FEW008 BKN022 06/03 Q1012 TEMPO 26020G35KT

More Conditions Fewer Conditions

Pressure 29.89 in
Visibility 6.2 miles
Clouds Few 800 ft
Mostly Cloudy 2200 ft
Windchill 39 °F
Dew Point 38 °F
Humidity 80%
Rainfall 0.00 in
Snow Depth Not available.
UV 0.0 out of 12
Pollen Not available.
Air Quality Not available.
Flu Activity Not available.
METAR EDDV 201020Z 24020G32KT 210V270 9999 FEW008 BKN022 06/03 Q1012 TEMPO 26020G35KT

More Conditions Fewer Conditions

10-Day Weather Forecast

Almanac

Astronomy

Dec. 20, 2014 Rise Set
Actual Time
Civil Twilight
Nautical Twilight
Astronomical Twilight
Moon
Length of Visible Light
Length of Day
Tomorrow will be .
, % of the Moon is Illuminated

Today's Extremes

Country Highs Country Lows

Community

WunderPhotos

Upload Photos

1,779,150 photos uploaded!

WunderBlogs® & News

Nearby

Air Quality

  Air Quality AQ Index Pollutant
Not available.

Snow Depth

Station Depth Elevation

Earthquake Activity

City Distance Mag. Time & Date
Minimum magnitude displayed is 2.5.

Coastal Water Temperatures

Place Temperature

Nearby Weather Stations